Flight Track Log - Related Links

Times and Time Zones

All times are in EDT time to prevent confusion due to time zone crossing. See the SWA1040 flight status page for this flight to view local times or setup timezone preferences in your user account.

Time Position Orientation Groundspeed Altitude Reporting Facility
EDT Latitude Longitude Course Direction KTS MPH feet Rate Location/Type
Sat 12:31:00 PM 42.8025 -73.8239 341° North 193 222 3,100  Level Boston Center
Sat 12:32:20 PM 42.8558 -73.9017 313° West 236 272 5,900 3,429 Climbing Boston Center
Sat 12:33:20 PM 42.8939 -74.0044 297° West 264 304 11,100 4,400 Climbing Boston Center
Sat 12:34:20 PM 42.8717 -74.1031 253° West 275 316 14,700 3,250 Climbing Boston Center
Sat 12:35:20 PM 42.7761 -74.0919 175° South 231 266 17,600 2,450 Climbing Boston Center
Sat 12:36:20 PM 42.6911 -74.0503 160° South 258 297 19,600 2,700 Climbing Boston Center
Sat 12:37:20 PM 42.5775 -73.9936 160° South 347 399 23,000 3,400 Climbing Boston Center
Sat 12:38:20 PM 42.4675 -73.9403 160° South 380 437 26,400 2,500 Climbing Boston Center
Sat 12:39:20 PM 42.3600 -73.8900 161° South 396 456 28,000 800 Climbing Boston Center
Sat 12:40:20 PM 42.2542 -73.8369 160° South 403 464 28,000  Level Boston Center
Sat 12:41:20 PM 42.1422 -73.8008 167° South 408 470 28,000  Level Boston Center
Sat 12:42:20 PM 42.0253 -73.8039 181° South 408 470 28,000  Level Boston Center
Sat 12:43:20 PM 41.9108 -73.8042 180° South 414 476 28,000  Level Boston Center
Sat 12:45:31 PM 41.6600 -73.8003 179° South 436 502 28,000  Level New York Center
Sat 12:46:32 PM 41.5497 -73.7953 178° South 423 487 28,000  Level New York Center
Sat 12:47:29 PM 41.4331 -73.7983 181° South 417 480 28,000  Level New York Center
Sat 12:48:32 PM 41.3186 -73.7986 180° South 417 480 28,000  Level New York Center
Sat 12:49:30 PM 41.2019 -73.7989 180° South 417 480 28,000  Level New York Center
Sat 12:50:29 PM 41.1064 -73.8717 210° Southwest 393 452 28,000  Level New York Center
Sat 12:51:29 PM 41.0383 -73.9953 234° Southwest 393 452 28,000 -100 Level New York Center
Sat 12:52:29 PM 40.9664 -74.1125 231° Southwest 398 458 27,800 -496 Descending New York Center
Sat 12:53:30 PM 40.9008 -74.2192 231° Southwest 412 474 27,000 -850 Descending New York Center
Sat 12:54:29 PM 40.8244 -74.3414 230° Southwest 428 493 26,100 -504 Descending New York Center
Sat 12:55:29 PM 40.7497 -74.4664 232° Southwest 433 498 26,000 -50 Descending New York Center
Sat 12:56:30 PM 40.6750 -74.5881 231° Southwest 433 498 26,000  Level New York Center
Sat 12:57:29 PM 40.6000 -74.7150 232° Southwest 433 498 26,000  Level New York Center
Sat 12:58:30 PM 40.5189 -74.8306 227° Southwest 433 498 26,000  Level New York Center
Sat 12:59:30 PM 40.4378 -74.9486 228° Southwest 439 505 26,000 -893 Level New York Center
Sat 01:00:31 PM 40.3564 -75.0661 228° Southwest 439 505 24,200 -1,983 Descending New York Center
Sat 01:01:31 PM 40.2772 -75.1756 227° Southwest 439 505 22,000 -2,200 Descending New York Center
Sat 01:02:31 PM 40.2003 -75.2819 227° Southwest 420 483 19,800 -2,034 Descending New York Center
Sat 01:03:29 PM 40.1233 -75.3856 226° Southwest 407 468 18,000 -915 Descending New York Center
Sat 01:04:29 PM 40.0436 -75.4997 228° Southwest 402 463 18,000  Level New York Center
Sat 01:05:30 PM 39.9753 -75.5925 226° Southwest 397 457 18,000  Level New York Center
Sat 01:06:30 PM 39.8997 -75.7064 229° Southwest 397 457 18,000 -403 Level New York Center
Sat 01:07:29 PM 39.8456 -75.8081 235° Southwest 392 451 17,200 -1,313 Descending New York Center
Sat 01:09:00 PM 39.7566 -75.9634 247° West  Level FlightAware Approximate
Sat 01:11:18 PM 39.6333 -76.2167 218° Southwest 309 356 11,700  Level Potomac TRACON
Sat 01:12:18 PM 39.5833 -76.3000 232° Southwest 305 351 10,700 -994 Descending Potomac TRACON
Sat 01:14:19 PM 39.4833 -76.4833 235° Southwest 301 346 8,700 -994 Descending Potomac TRACON
Sat 01:15:19 PM 39.4667 -76.5833 258° West 298 343 7,700 -1,200 Descending Potomac TRACON
Sat 01:16:00 PM 39.2797 -76.5537 218° Southwest  Level FlightAware Approximate
Sat 01:17:19 PM 39.3833 -76.7667 240° Southwest 286 329 5,100  Level Potomac TRACON
Sat 01:18:19 PM 39.3500 -76.8500 243° Southwest 277 319 3,900 -1,050 Descending Potomac TRACON
Sat 01:19:19 PM 39.2833 -76.8833 201° Southwest 263 303 3,000 -942 Descending Potomac TRACON
Sat 01:20:20 PM 39.2167 -76.8667 169° South 252 290 2,000 -496 Descending Potomac TRACON
Sat 01:21:20 PM 39.1833 -76.8333 142° Southeast 186 214 2,000 -313 Level Potomac TRACON
Sat 01:22:15 PM 39.1833 -76.7667 90° East 155 178 1,400 -678 Descending Potomac TRACON
Sat 01:23:15 PM 39.1833 -76.7333 90° East 124 143 700 -700 Descending Potomac TRACON
Sat 01:25:00 PM 39.1667 -76.6667 270° West  Level FlightAware Approximate

Login

Don't have an account? Register now (free) for customized features, flight alerts, and more!